Kamiiso, Japan
Current Conditions -  °F | °C
As of 8:00 PM on Saturday 20 Dec 2014 (Local Time) from RJCH Reporting Station
Broken Clouds Broken Clouds  
Wind Chill: 40°   Ceiling: 3500
Heat Index: 46°   Visibility: 6mi
Dew Point: 37°   Wind: 16mph
Humidity: 71%   Direction: 200°SSW
Pressure: 29.65"   Gusts: NA
Location:  41.83°N, 140.67°E
Report Text: RJCH 201100Z 20014KT 9999 FEW015 SCT025 BKN035 08/03 Q1004
Loading
Personal Weather Stations






























Interactive Weather Map New forecast layout! Learn more

10-Day Weather Forecast

Advertisements
Track Severe Weather on mobile